sensor_id;sensor_type;location;lat;lon;timestamp;P1;durP1;ratioP1;P2;durP2;ratioP2
75758;SDS011;64371;47.566;19.086;2023-11-21T00:00:30;14.45;;;8.68;;
75758;SDS011;64371;47.566;19.086;2023-11-21T00:03:32;16.88;;;8.32;;
75758;SDS011;64371;47.566;19.086;2023-11-21T00:06:35;15.57;;;8.02;;
75758;SDS011;64371;47.566;19.086;2023-11-21T00:09:37;15.87;;;8.13;;
75758;SDS011;64371;47.566;19.086;2023-11-21T00:12:39;13.68;;;7.80;;
75758;SDS011;64371;47.566;19.086;2023-11-21T00:15:44;13.10;;;6.47;;
75758;SDS011;64371;47.566;19.086;2023-11-21T00:18:46;13.93;;;7.20;;
75758;SDS011;64371;47.566;19.086;2023-11-21T00:21:48;13.50;;;7.38;;
75758;SDS011;64371;47.566;19.086;2023-11-21T00:24:51;14.77;;;7.60;;
75758;SDS011;64371;47.566;19.086;2023-11-21T00:27:53;13.52;;;6.90;;
75758;SDS011;64371;47.566;19.086;2023-11-21T00:30:56;13.02;;;6.85;;
75758;SDS011;64371;47.566;19.086;2023-11-21T00:33:58;11.27;;;6.55;;
75758;SDS011;64371;47.566;19.086;2023-11-21T00:37:00;12.05;;;6.03;;
75758;SDS011;64371;47.566;19.086;2023-11-21T00:40:04;15.17;;;5.80;;
75758;SDS011;64371;47.566;19.086;2023-11-21T00:43:09;15.95;;;6.68;;
75758;SDS011;64371;47.566;19.086;2023-11-21T00:46:11;12.57;;;6.82;;
75758;SDS011;64371;47.566;19.086;2023-11-21T00:49:13;12.45;;;6.80;;
75758;SDS011;64371;47.566;19.086;2023-11-21T00:52:17;12.48;;;5.78;;
75758;SDS011;64371;47.566;19.086;2023-11-21T00:55:20;12.20;;;6.17;;
75758;SDS011;64371;47.566;19.086;2023-11-21T00:58:23;14.27;;;6.28;;
75758;SDS011;64371;47.566;19.086;2023-11-21T01:01:26;12.40;;;6.10;;
75758;SDS011;64371;47.566;19.086;2023-11-21T01:04:29;11.38;;;6.03;;
75758;SDS011;64371;47.566;19.086;2023-11-21T01:07:34;12.77;;;6.35;;
75758;SDS011;64371;47.566;19.086;2023-11-21T01:10:38;14.23;;;6.00;;
75758;SDS011;64371;47.566;19.086;2023-11-21T01:13:41;13.52;;;6.07;;
75758;SDS011;64371;47.566;19.086;2023-11-21T01:16:44;8.43;;;3.80;;
75758;SDS011;64371;47.566;19.086;2023-11-21T01:19:47;9.15;;;4.82;;
75758;SDS011;64371;47.566;19.086;2023-11-21T01:22:49;12.52;;;5.65;;
75758;SDS011;64371;47.566;19.086;2023-11-21T01:25:51;7.33;;;3.57;;
75758;SDS011;64371;47.566;19.086;2023-11-21T01:28:54;9.85;;;5.43;;
75758;SDS011;64371;47.566;19.086;2023-11-21T01:31:56;12.07;;;5.40;;
75758;SDS011;64371;47.566;19.086;2023-11-21T01:35:00;11.18;;;5.13;;
75758;SDS011;64371;47.566;19.086;2023-11-21T01:38:02;14.23;;;5.70;;
75758;SDS011;64371;47.566;19.086;2023-11-21T01:41:05;7.30;;;3.97;;
75758;SDS011;64371;47.566;19.086;2023-11-21T01:44:08;8.93;;;5.25;;
75758;SDS011;64371;47.566;19.086;2023-11-21T01:47:11;10.05;;;5.55;;
75758;SDS011;64371;47.566;19.086;2023-11-21T01:50:17;10.63;;;5.57;;
75758;SDS011;64371;47.566;19.086;2023-11-21T01:53:20;9.52;;;5.28;;
75758;SDS011;64371;47.566;19.086;2023-11-21T01:56:30;10.70;;;5.47;;
75758;SDS011;64371;47.566;19.086;2023-11-21T01:59:34;12.25;;;5.32;;
75758;SDS011;64371;47.566;19.086;2023-11-21T02:02:38;8.77;;;4.95;;
75758;SDS011;64371;47.566;19.086;2023-11-21T02:05:41;10.95;;;5.65;;
75758;SDS011;64371;47.566;19.086;2023-11-21T02:08:43;9.93;;;4.70;;
75758;SDS011;64371;47.566;19.086;2023-11-21T02:11:46;10.43;;;5.50;;
75758;SDS011;64371;47.566;19.086;2023-11-21T02:14:51;13.95;;;6.18;;
75758;SDS011;64371;47.566;19.086;2023-11-21T02:17:54;12.50;;;6.38;;
75758;SDS011;64371;47.566;19.086;2023-11-21T02:20:57;9.98;;;5.50;;
75758;SDS011;64371;47.566;19.086;2023-11-21T02:23:59;12.98;;;6.25;;
75758;SDS011;64371;47.566;19.086;2023-11-21T02:27:02;8.83;;;5.17;;
75758;SDS011;64371;47.566;19.086;2023-11-21T02:30:05;11.73;;;4.88;;
75758;SDS011;64371;47.566;19.086;2023-11-21T02:33:09;9.48;;;4.60;;
75758;SDS011;64371;47.566;19.086;2023-11-21T02:36:12;9.73;;;4.00;;
75758;SDS011;64371;47.566;19.086;2023-11-21T02:39:14;7.90;;;4.22;;
75758;SDS011;64371;47.566;19.086;2023-11-21T02:42:17;8.37;;;4.50;;
75758;SDS011;64371;47.566;19.086;2023-11-21T02:45:20;8.65;;;4.35;;
75758;SDS011;64371;47.566;19.086;2023-11-21T02:48:26;9.95;;;4.60;;
75758;SDS011;64371;47.566;19.086;2023-11-21T02:51:33;11.32;;;4.43;;
75758;SDS011;64371;47.566;19.086;2023-11-21T02:54:35;10.32;;;4.53;;
75758;SDS011;64371;47.566;19.086;2023-11-21T02:57:38;6.87;;;3.70;;
75758;SDS011;64371;47.566;19.086;2023-11-21T03:00:40;9.52;;;4.10;;
75758;SDS011;64371;47.566;19.086;2023-11-21T03:03:43;6.95;;;4.35;;
75758;SDS011;64371;47.566;19.086;2023-11-21T03:06:46;9.65;;;4.95;;
75758;SDS011;64371;47.566;19.086;2023-11-21T03:09:49;10.07;;;4.22;;
75758;SDS011;64371;47.566;19.086;2023-11-21T03:12:52;7.97;;;3.67;;
75758;SDS011;64371;47.566;19.086;2023-11-21T03:15:55;9.35;;;4.43;;
75758;SDS011;64371;47.566;19.086;2023-11-21T03:18:57;7.93;;;3.90;;
75758;SDS011;64371;47.566;19.086;2023-11-21T03:22:00;9.32;;;4.03;;
75758;SDS011;64371;47.566;19.086;2023-11-21T03:25:03;7.53;;;4.03;;
75758;SDS011;64371;47.566;19.086;2023-11-21T03:28:06;7.10;;;3.93;;
75758;SDS011;64371;47.566;19.086;2023-11-21T03:31:10;7.25;;;3.97;;
75758;SDS011;64371;47.566;19.086;2023-11-21T03:34:23;10.95;;;4.40;;
75758;SDS011;64371;47.566;19.086;2023-11-21T03:37:29;10.50;;;4.50;;
75758;SDS011;64371;47.566;19.086;2023-11-21T03:40:31;11.02;;;4.15;;
75758;SDS011;64371;47.566;19.086;2023-11-21T03:43:36;9.17;;;4.10;;
75758;SDS011;64371;47.566;19.086;2023-11-21T03:46:39;9.75;;;4.43;;
75758;SDS011;64371;47.566;19.086;2023-11-21T03:49:41;12.10;;;5.10;;
75758;SDS011;64371;47.566;19.086;2023-11-21T03:52:44;10.52;;;5.60;;
75758;SDS011;64371;47.566;19.086;2023-11-21T03:55:46;15.13;;;6.35;;
75758;SDS011;64371;47.566;19.086;2023-11-21T03:58:49;11.67;;;5.80;;
75758;SDS011;64371;47.566;19.086;2023-11-21T04:01:51;10.57;;;5.78;;
75758;SDS011;64371;47.566;19.086;2023-11-21T04:04:53;9.07;;;4.32;;
75758;SDS011;64371;47.566;19.086;2023-11-21T04:07:56;7.40;;;4.20;;
75758;SDS011;64371;47.566;19.086;2023-11-21T04:10:58;9.45;;;5.32;;
75758;SDS011;64371;47.566;19.086;2023-11-21T04:14:01;23.23;;;9.83;;
75758;SDS011;64371;47.566;19.086;2023-11-21T04:17:03;20.58;;;10.10;;
75758;SDS011;64371;47.566;19.086;2023-11-21T04:20:06;23.52;;;11.25;;
75758;SDS011;64371;47.566;19.086;2023-11-21T04:23:12;20.33;;;9.85;;
75758;SDS011;64371;47.566;19.086;2023-11-21T04:26:15;21.13;;;10.77;;
75758;SDS011;64371;47.566;19.086;2023-11-21T04:29:18;16.17;;;9.20;;
75758;SDS011;64371;47.566;19.086;2023-11-21T04:32:20;16.40;;;8.93;;
75758;SDS011;64371;47.566;19.086;2023-11-21T04:35:23;15.75;;;9.38;;
75758;SDS011;64371;47.566;19.086;2023-11-21T04:38:25;19.40;;;9.38;;
75758;SDS011;64371;47.566;19.086;2023-11-21T04:41:27;17.15;;;9.60;;
75758;SDS011;64371;47.566;19.086;2023-11-21T04:44:30;18.43;;;8.97;;
75758;SDS011;64371;47.566;19.086;2023-11-21T04:47:32;18.83;;;9.43;;
75758;SDS011;64371;47.566;19.086;2023-11-21T04:50:34;19.40;;;9.40;;
75758;SDS011;64371;47.566;19.086;2023-11-21T04:53:37;22.77;;;10.50;;
75758;SDS011;64371;47.566;19.086;2023-11-21T04:56:39;19.70;;;10.10;;
75758;SDS011;64371;47.566;19.086;2023-11-21T04:59:41;20.17;;;10.30;;
75758;SDS011;64371;47.566;19.086;2023-11-21T05:02:45;18.42;;;8.55;;
75758;SDS011;64371;47.566;19.086;2023-11-21T05:05:47;14.43;;;7.63;;
75758;SDS011;64371;47.566;19.086;2023-11-21T05:08:50;15.63;;;6.28;;
75758;SDS011;64371;47.566;19.086;2023-11-21T05:11:52;17.67;;;10.18;;
75758;SDS011;64371;47.566;19.086;2023-11-21T05:14:55;17.37;;;9.20;;
75758;SDS011;64371;47.566;19.086;2023-11-21T05:17:57;20.88;;;10.63;;
75758;SDS011;64371;47.566;19.086;2023-11-21T05:21:02;18.30;;;10.13;;
75758;SDS011;64371;47.566;19.086;2023-11-21T05:24:04;19.63;;;10.75;;
75758;SDS011;64371;47.566;19.086;2023-11-21T05:27:07;19.98;;;10.88;;
75758;SDS011;64371;47.566;19.086;2023-11-21T05:30:11;19.60;;;9.87;;
75758;SDS011;64371;47.566;19.086;2023-11-21T05:33:16;18.77;;;10.40;;
75758;SDS011;64371;47.566;19.086;2023-11-21T05:36:18;21.67;;;10.65;;
75758;SDS011;64371;47.566;19.086;2023-11-21T05:39:21;23.25;;;11.90;;
75758;SDS011;64371;47.566;19.086;2023-11-21T05:42:23;22.67;;;11.18;;
75758;SDS011;64371;47.566;19.086;2023-11-21T05:45:26;28.50;;;10.90;;
75758;SDS011;64371;47.566;19.086;2023-11-21T05:48:28;18.13;;;9.38;;
75758;SDS011;64371;47.566;19.086;2023-11-21T05:51:30;19.08;;;10.55;;
75758;SDS011;64371;47.566;19.086;2023-11-21T05:54:33;21.05;;;11.00;;
75758;SDS011;64371;47.566;19.086;2023-11-21T05:57:36;19.63;;;10.00;;
75758;SDS011;64371;47.566;19.086;2023-11-21T06:00:39;20.37;;;10.00;;
75758;SDS011;64371;47.566;19.086;2023-11-21T06:03:42;19.75;;;9.20;;
75758;SDS011;64371;47.566;19.086;2023-11-21T06:06:45;20.63;;;8.98;;
75758;SDS011;64371;47.566;19.086;2023-11-21T06:09:47;16.85;;;9.68;;
75758;SDS011;64371;47.566;19.086;2023-11-21T06:12:52;19.50;;;9.10;;
75758;SDS011;64371;47.566;19.086;2023-11-21T06:15:55;18.97;;;10.20;;
75758;SDS011;64371;47.566;19.086;2023-11-21T06:18:57;21.70;;;9.80;;
75758;SDS011;64371;47.566;19.086;2023-11-21T06:22:00;17.60;;;10.20;;
75758;SDS011;64371;47.566;19.086;2023-11-21T06:25:03;19.55;;;9.57;;
75758;SDS011;64371;47.566;19.086;2023-11-21T06:28:07;17.02;;;8.13;;
75758;SDS011;64371;47.566;19.086;2023-11-21T06:31:09;24.95;;;11.07;;
75758;SDS011;64371;47.566;19.086;2023-11-21T06:34:12;24.50;;;12.88;;
75758;SDS011;64371;47.566;19.086;2023-11-21T06:37:15;20.80;;;12.47;;
75758;SDS011;64371;47.566;19.086;2023-11-21T06:40:18;25.20;;;13.35;;
75758;SDS011;64371;47.566;19.086;2023-11-21T06:43:22;27.45;;;13.27;;
75758;SDS011;64371;47.566;19.086;2023-11-21T06:46:25;24.35;;;12.13;;
75758;SDS011;64371;47.566;19.086;2023-11-21T06:49:28;24.33;;;12.52;;
75758;SDS011;64371;47.566;19.086;2023-11-21T06:52:30;21.77;;;10.03;;
75758;SDS011;64371;47.566;19.086;2023-11-21T06:55:33;32.47;;;14.40;;
75758;SDS011;64371;47.566;19.086;2023-11-21T06:58:35;29.83;;;13.27;;
75758;SDS011;64371;47.566;19.086;2023-11-21T07:01:38;21.02;;;9.93;;
75758;SDS011;64371;47.566;19.086;2023-11-21T07:05:43;18.27;;;9.10;;
75758;SDS011;64371;47.566;19.086;2023-11-21T07:08:46;19.53;;;10.57;;
75758;SDS011;64371;47.566;19.086;2023-11-21T07:11:49;25.95;;;12.80;;
75758;SDS011;64371;47.566;19.086;2023-11-21T07:14:51;19.55;;;10.13;;
75758;SDS011;64371;47.566;19.086;2023-11-21T07:17:56;21.65;;;9.75;;
75758;SDS011;64371;47.566;19.086;2023-11-21T07:20:59;24.33;;;10.90;;
75758;SDS011;64371;47.566;19.086;2023-11-21T07:24:02;18.47;;;8.23;;
75758;SDS011;64371;47.566;19.086;2023-11-21T07:27:04;21.10;;;9.63;;
75758;SDS011;64371;47.566;19.086;2023-11-21T07:30:07;14.38;;;6.93;;
75758;SDS011;64371;47.566;19.086;2023-11-21T07:33:12;17.52;;;8.65;;
75758;SDS011;64371;47.566;19.086;2023-11-21T07:36:15;17.75;;;8.32;;
75758;SDS011;64371;47.566;19.086;2023-11-21T07:39:19;25.70;;;11.73;;
75758;SDS011;64371;47.566;19.086;2023-11-21T07:42:31;21.35;;;10.30;;
75758;SDS011;64371;47.566;19.086;2023-11-21T07:45:34;20.38;;;10.82;;
75758;SDS011;64371;47.566;19.086;2023-11-21T07:48:45;28.23;;;12.88;;
75758;SDS011;64371;47.566;19.086;2023-11-21T07:51:48;28.80;;;14.53;;
75758;SDS011;64371;47.566;19.086;2023-11-21T07:54:50;22.30;;;10.50;;
75758;SDS011;64371;47.566;19.086;2023-11-21T07:57:58;19.52;;;11.05;;
75758;SDS011;64371;47.566;19.086;2023-11-21T08:01:11;21.20;;;10.10;;
75758;SDS011;64371;47.566;19.086;2023-11-21T08:04:14;21.08;;;11.63;;
75758;SDS011;64371;47.566;19.086;2023-11-21T08:07:19;18.75;;;9.02;;
75758;SDS011;64371;47.566;19.086;2023-11-21T08:10:22;21.33;;;9.20;;
75758;SDS011;64371;47.566;19.086;2023-11-21T08:13:25;18.23;;;8.00;;
75758;SDS011;64371;47.566;19.086;2023-11-21T08:16:29;18.38;;;7.70;;
75758;SDS011;64371;47.566;19.086;2023-11-21T08:19:31;25.73;;;8.57;;
75758;SDS011;64371;47.566;19.086;2023-11-21T08:22:35;14.13;;;4.83;;
75758;SDS011;64371;47.566;19.086;2023-11-21T08:25:38;14.47;;;4.43;;
75758;SDS011;64371;47.566;19.086;2023-11-21T08:28:40;12.52;;;4.22;;
75758;SDS011;64371;47.566;19.086;2023-11-21T08:31:43;15.90;;;4.75;;
75758;SDS011;64371;47.566;19.086;2023-11-21T08:34:49;15.85;;;6.93;;
75758;SDS011;64371;47.566;19.086;2023-11-21T08:37:54;8.20;;;4.05;;
75758;SDS011;64371;47.566;19.086;2023-11-21T08:40:57;8.07;;;3.93;;
75758;SDS011;64371;47.566;19.086;2023-11-21T08:44:25;8.15;;;3.90;;
75758;SDS011;64371;47.566;19.086;2023-11-21T08:47:28;5.82;;;3.63;;
75758;SDS011;64371;47.566;19.086;2023-11-21T08:50:30;12.77;;;4.30;;
75758;SDS011;64371;47.566;19.086;2023-11-21T08:53:32;8.35;;;4.35;;
75758;SDS011;64371;47.566;19.086;2023-11-21T08:56:35;10.43;;;4.20;;
75758;SDS011;64371;47.566;19.086;2023-11-21T09:03:02;14.10;;;4.63;;
75758;SDS011;64371;47.566;19.086;2023-11-21T09:06:05;11.63;;;4.60;;
75758;SDS011;64371;47.566;19.086;2023-11-21T09:09:14;10.77;;;4.10;;
75758;SDS011;64371;47.566;19.086;2023-11-21T09:12:18;8.17;;;3.40;;
75758;SDS011;64371;47.566;19.086;2023-11-21T09:15:21;9.07;;;5.00;;
75758;SDS011;64371;47.566;19.086;2023-11-21T09:18:23;10.60;;;4.60;;
75758;SDS011;64371;47.566;19.086;2023-11-21T09:21:26;9.88;;;3.88;;
75758;SDS011;64371;47.566;19.086;2023-11-21T09:24:33;7.75;;;3.30;;
75758;SDS011;64371;47.566;19.086;2023-11-21T09:27:39;11.67;;;3.00;;
75758;SDS011;64371;47.566;19.086;2023-11-21T09:30:42;6.20;;;2.65;;
75758;SDS011;64371;47.566;19.086;2023-11-21T09:33:45;13.35;;;2.70;;
75758;SDS011;64371;47.566;19.086;2023-11-21T09:36:50;8.93;;;4.43;;
75758;SDS011;64371;47.566;19.086;2023-11-21T09:39:56;9.90;;;2.92;;
75758;SDS011;64371;47.566;19.086;2023-11-21T09:46:52;12.13;;;3.50;;
75758;SDS011;64371;47.566;19.086;2023-11-21T09:50:03;6.80;;;3.50;;
75758;SDS011;64371;47.566;19.086;2023-11-21T09:53:39;6.88;;;2.72;;
75758;SDS011;64371;47.566;19.086;2023-11-21T09:56:48;6.55;;;2.47;;
75758;SDS011;64371;47.566;19.086;2023-11-21T09:59:55;11.73;;;5.03;;
75758;SDS011;64371;47.566;19.086;2023-11-21T10:03:13;4.53;;;2.35;;
75758;SDS011;64371;47.566;19.086;2023-11-21T10:06:19;8.10;;;4.80;;
75758;SDS011;64371;47.566;19.086;2023-11-21T10:09:22;6.05;;;2.40;;
75758;SDS011;64371;47.566;19.086;2023-11-21T10:12:29;9.03;;;2.83;;
75758;SDS011;64371;47.566;19.086;2023-11-21T10:15:34;5.43;;;2.20;;
75758;SDS011;64371;47.566;19.086;2023-11-21T10:18:37;18.92;;;3.13;;
75758;SDS011;64371;47.566;19.086;2023-11-21T10:21:42;5.55;;;2.05;;
75758;SDS011;64371;47.566;19.086;2023-11-21T10:24:48;3.35;;;2.10;;
75758;SDS011;64371;47.566;19.086;2023-11-21T10:27:57;3.80;;;2.03;;
75758;SDS011;64371;47.566;19.086;2023-11-21T10:31:03;5.63;;;2.50;;
75758;SDS011;64371;47.566;19.086;2023-11-21T10:34:16;13.65;;;3.15;;
75758;SDS011;64371;47.566;19.086;2023-11-21T10:37:20;9.27;;;2.60;;
75758;SDS011;64371;47.566;19.086;2023-11-21T10:40:22;6.43;;;2.10;;
75758;SDS011;64371;47.566;19.086;2023-11-21T10:43:25;11.75;;;3.45;;
75758;SDS011;64371;47.566;19.086;2023-11-21T10:46:29;8.90;;;2.70;;
75758;SDS011;64371;47.566;19.086;2023-11-21T10:49:32;6.43;;;2.85;;
75758;SDS011;64371;47.566;19.086;2023-11-21T10:52:35;5.18;;;2.63;;
75758;SDS011;64371;47.566;19.086;2023-11-21T10:55:38;8.90;;;3.50;;
75758;SDS011;64371;47.566;19.086;2023-11-21T10:58:41;7.53;;;3.15;;
75758;SDS011;64371;47.566;19.086;2023-11-21T11:01:46;11.57;;;3.67;;
75758;SDS011;64371;47.566;19.086;2023-11-21T11:04:53;8.45;;;3.70;;
75758;SDS011;64371;47.566;19.086;2023-11-21T11:08:11;10.68;;;3.15;;
75758;SDS011;64371;47.566;19.086;2023-11-21T11:11:14;8.60;;;3.60;;
75758;SDS011;64371;47.566;19.086;2023-11-21T11:14:16;11.23;;;4.75;;
75758;SDS011;64371;47.566;19.086;2023-11-21T11:17:24;8.40;;;2.90;;
75758;SDS011;64371;47.566;19.086;2023-11-21T11:20:31;11.88;;;4.65;;
75758;SDS011;64371;47.566;19.086;2023-11-21T11:23:49;8.48;;;3.20;;
75758;SDS011;64371;47.566;19.086;2023-11-21T11:33:51;8.50;;;3.30;;
75758;SDS011;64371;47.566;19.086;2023-11-21T11:37:07;6.68;;;2.80;;
75758;SDS011;64371;47.566;19.086;2023-11-21T11:40:11;11.15;;;3.20;;
75758;SDS011;64371;47.566;19.086;2023-11-21T11:43:24;10.82;;;5.05;;
75758;SDS011;64371;47.566;19.086;2023-11-21T11:46:43;11.07;;;3.90;;
75758;SDS011;64371;47.566;19.086;2023-11-21T11:50:09;6.43;;;3.53;;
75758;SDS011;64371;47.566;19.086;2023-11-21T11:53:16;14.50;;;5.10;;
75758;SDS011;64371;47.566;19.086;2023-11-21T11:56:29;11.70;;;4.35;;
75758;SDS011;64371;47.566;19.086;2023-11-21T12:00:02;21.23;;;5.88;;
75758;SDS011;64371;47.566;19.086;2023-11-21T12:03:12;11.40;;;4.38;;
75758;SDS011;64371;47.566;19.086;2023-11-21T12:06:15;21.80;;;6.47;;
75758;SDS011;64371;47.566;19.086;2023-11-21T12:09:26;12.02;;;5.18;;
75758;SDS011;64371;47.566;19.086;2023-11-21T12:12:28;10.45;;;5.35;;
75758;SDS011;64371;47.566;19.086;2023-11-21T12:15:31;21.52;;;6.45;;
75758;SDS011;64371;47.566;19.086;2023-11-21T12:18:34;14.43;;;6.88;;
75758;SDS011;64371;47.566;19.086;2023-11-21T12:21:38;12.40;;;6.80;;
75758;SDS011;64371;47.566;19.086;2023-11-21T12:24:43;14.02;;;7.18;;
75758;SDS011;64371;47.566;19.086;2023-11-21T12:27:50;19.75;;;7.53;;
75758;SDS011;64371;47.566;19.086;2023-11-21T12:30:54;20.35;;;8.30;;
75758;SDS011;64371;47.566;19.086;2023-11-21T12:34:18;14.75;;;6.72;;
75758;SDS011;64371;47.566;19.086;2023-11-21T12:37:26;17.87;;;6.63;;
75758;SDS011;64371;47.566;19.086;2023-11-21T12:40:33;12.75;;;7.18;;
75758;SDS011;64371;47.566;19.086;2023-11-21T12:43:35;15.40;;;7.55;;
75758;SDS011;64371;47.566;19.086;2023-11-21T12:46:40;17.17;;;6.93;;
75758;SDS011;64371;47.566;19.086;2023-11-21T12:49:47;17.63;;;6.15;;
75758;SDS011;64371;47.566;19.086;2023-11-21T12:52:51;13.07;;;6.03;;
75758;SDS011;64371;47.566;19.086;2023-11-21T12:55:56;13.02;;;5.38;;
75758;SDS011;64371;47.566;19.086;2023-11-21T12:59:03;7.25;;;3.13;;
75758;SDS011;64371;47.566;19.086;2023-11-21T13:02:07;7.90;;;4.00;;
75758;SDS011;64371;47.566;19.086;2023-11-21T13:05:10;10.43;;;3.80;;
75758;SDS011;64371;47.566;19.086;2023-11-21T13:08:25;10.87;;;2.90;;
75758;SDS011;64371;47.566;19.086;2023-11-21T13:11:28;8.35;;;3.05;;
75758;SDS011;64371;47.566;19.086;2023-11-21T13:14:34;8.07;;;3.95;;
75758;SDS011;64371;47.566;19.086;2023-11-21T13:17:36;8.73;;;3.90;;
75758;SDS011;64371;47.566;19.086;2023-11-21T13:20:40;9.75;;;3.70;;
75758;SDS011;64371;47.566;19.086;2023-11-21T13:23:43;8.93;;;4.03;;
75758;SDS011;64371;47.566;19.086;2023-11-21T13:26:50;9.27;;;4.05;;
75758;SDS011;64371;47.566;19.086;2023-11-21T13:29:59;9.15;;;3.50;;
75758;SDS011;64371;47.566;19.086;2023-11-21T13:33:06;8.73;;;4.00;;
75758;SDS011;64371;47.566;19.086;2023-11-21T13:36:13;10.60;;;3.43;;
75758;SDS011;64371;47.566;19.086;2023-11-21T13:39:17;6.83;;;3.70;;
75758;SDS011;64371;47.566;19.086;2023-11-21T13:42:23;6.78;;;3.20;;
75758;SDS011;64371;47.566;19.086;2023-11-21T13:45:28;8.93;;;3.38;;
75758;SDS011;64371;47.566;19.086;2023-11-21T13:48:32;10.43;;;4.63;;
75758;SDS011;64371;47.566;19.086;2023-11-21T13:51:47;10.25;;;3.00;;
75758;SDS011;64371;47.566;19.086;2023-11-21T13:54:57;5.50;;;2.80;;
75758;SDS011;64371;47.566;19.086;2023-11-21T13:58:01;7.05;;;2.40;;
75758;SDS011;64371;47.566;19.086;2023-11-21T14:01:11;6.40;;;2.53;;
75758;SDS011;64371;47.566;19.086;2023-11-21T14:04:32;5.18;;;2.38;;
75758;SDS011;64371;47.566;19.086;2023-11-21T14:07:36;8.23;;;2.80;;
75758;SDS011;64371;47.566;19.086;2023-11-21T14:10:38;6.97;;;2.30;;
75758;SDS011;64371;47.566;19.086;2023-11-21T14:13:47;7.82;;;3.97;;
75758;SDS011;64371;47.566;19.086;2023-11-21T14:16:51;6.10;;;3.00;;
75758;SDS011;64371;47.566;19.086;2023-11-21T14:19:54;10.85;;;4.13;;
75758;SDS011;64371;47.566;19.086;2023-11-21T14:22:58;19.52;;;7.70;;
75758;SDS011;64371;47.566;19.086;2023-11-21T14:26:00;16.03;;;7.30;;
75758;SDS011;64371;47.566;19.086;2023-11-21T14:29:03;15.77;;;8.82;;
75758;SDS011;64371;47.566;19.086;2023-11-21T14:32:07;18.80;;;9.82;;
75758;SDS011;64371;47.566;19.086;2023-11-21T14:35:10;19.70;;;9.93;;
75758;SDS011;64371;47.566;19.086;2023-11-21T14:38:12;19.10;;;9.23;;
75758;SDS011;64371;47.566;19.086;2023-11-21T14:41:16;20.57;;;10.30;;
75758;SDS011;64371;47.566;19.086;2023-11-21T14:44:19;22.65;;;11.50;;
75758;SDS011;64371;47.566;19.086;2023-11-21T14:47:22;26.60;;;11.27;;
75758;SDS011;64371;47.566;19.086;2023-11-21T14:50:29;30.77;;;13.63;;
75758;SDS011;64371;47.566;19.086;2023-11-21T14:53:41;30.42;;;14.18;;
75758;SDS011;64371;47.566;19.086;2023-11-21T14:56:55;27.13;;;13.17;;
75758;SDS011;64371;47.566;19.086;2023-11-21T14:59:58;32.83;;;13.20;;
75758;SDS011;64371;47.566;19.086;2023-11-21T15:03:00;30.05;;;13.23;;
75758;SDS011;64371;47.566;19.086;2023-11-21T15:06:04;25.63;;;11.85;;
75758;SDS011;64371;47.566;19.086;2023-11-21T15:09:21;27.70;;;12.63;;
75758;SDS011;64371;47.566;19.086;2023-11-21T15:12:36;23.10;;;11.30;;
75758;SDS011;64371;47.566;19.086;2023-11-21T15:15:42;27.88;;;11.73;;
75758;SDS011;64371;47.566;19.086;2023-11-21T15:18:44;22.90;;;10.20;;
75758;SDS011;64371;47.566;19.086;2023-11-21T15:21:47;22.92;;;13.82;;
75758;SDS011;64371;47.566;19.086;2023-11-21T15:24:49;23.35;;;12.32;;
75758;SDS011;64371;47.566;19.086;2023-11-21T15:27:51;29.07;;;11.10;;
75758;SDS011;64371;47.566;19.086;2023-11-21T15:30:54;30.63;;;15.55;;
75758;SDS011;64371;47.566;19.086;2023-11-21T15:33:56;33.00;;;16.75;;
75758;SDS011;64371;47.566;19.086;2023-11-21T15:37:02;21.77;;;11.23;;
75758;SDS011;64371;47.566;19.086;2023-11-21T15:40:05;31.90;;;14.00;;
75758;SDS011;64371;47.566;19.086;2023-11-21T15:43:10;33.17;;;16.70;;
75758;SDS011;64371;47.566;19.086;2023-11-21T15:46:13;28.38;;;14.75;;
75758;SDS011;64371;47.566;19.086;2023-11-21T15:49:15;27.92;;;14.85;;
75758;SDS011;64371;47.566;19.086;2023-11-21T15:52:21;29.95;;;12.45;;
75758;SDS011;64371;47.566;19.086;2023-11-21T15:55:24;24.60;;;11.93;;
75758;SDS011;64371;47.566;19.086;2023-11-21T15:58:27;31.50;;;12.40;;
75758;SDS011;64371;47.566;19.086;2023-11-21T16:01:31;28.75;;;15.02;;
75758;SDS011;64371;47.566;19.086;2023-11-21T16:04:34;26.17;;;14.18;;
75758;SDS011;64371;47.566;19.086;2023-11-21T16:07:41;37.22;;;17.52;;
75758;SDS011;64371;47.566;19.086;2023-11-21T16:10:43;29.60;;;14.47;;
75758;SDS011;64371;47.566;19.086;2023-11-21T16:13:46;30.03;;;14.53;;
75758;SDS011;64371;47.566;19.086;2023-11-21T16:16:51;30.15;;;14.57;;
75758;SDS011;64371;47.566;19.086;2023-11-21T16:19:57;25.63;;;13.27;;
75758;SDS011;64371;47.566;19.086;2023-11-21T16:22:59;29.65;;;13.38;;
75758;SDS011;64371;47.566;19.086;2023-11-21T16:26:02;30.02;;;11.43;;
75758;SDS011;64371;47.566;19.086;2023-11-21T16:29:07;19.50;;;9.70;;
75758;SDS011;64371;47.566;19.086;2023-11-21T16:32:09;18.30;;;8.93;;
75758;SDS011;64371;47.566;19.086;2023-11-21T16:35:13;16.38;;;9.30;;
75758;SDS011;64371;47.566;19.086;2023-11-21T16:38:15;16.88;;;9.30;;
75758;SDS011;64371;47.566;19.086;2023-11-21T16:41:18;17.63;;;8.87;;
75758;SDS011;64371;47.566;19.086;2023-11-21T16:44:20;17.87;;;9.00;;
75758;SDS011;64371;47.566;19.086;2023-11-21T16:47:24;18.30;;;9.48;;
75758;SDS011;64371;47.566;19.086;2023-11-21T16:50:31;20.40;;;9.23;;
75758;SDS011;64371;47.566;19.086;2023-11-21T16:53:33;26.73;;;9.93;;
75758;SDS011;64371;47.566;19.086;2023-11-21T16:56:35;17.77;;;9.60;;
75758;SDS011;64371;47.566;19.086;2023-11-21T16:59:38;20.17;;;9.33;;
75758;SDS011;64371;47.566;19.086;2023-11-21T17:02:43;18.88;;;9.15;;
75758;SDS011;64371;47.566;19.086;2023-11-21T17:05:46;18.02;;;9.48;;
75758;SDS011;64371;47.566;19.086;2023-11-21T17:08:49;18.13;;;8.82;;
75758;SDS011;64371;47.566;19.086;2023-11-21T17:11:51;19.03;;;9.40;;
75758;SDS011;64371;47.566;19.086;2023-11-21T17:14:53;17.73;;;8.83;;
75758;SDS011;64371;47.566;19.086;2023-11-21T17:17:56;23.13;;;9.90;;
75758;SDS011;64371;47.566;19.086;2023-11-21T17:21:00;22.23;;;10.50;;
75758;SDS011;64371;47.566;19.086;2023-11-21T17:24:03;21.55;;;10.27;;
75758;SDS011;64371;47.566;19.086;2023-11-21T17:27:06;22.23;;;10.57;;
75758;SDS011;64371;47.566;19.086;2023-11-21T17:30:09;23.70;;;12.93;;
75758;SDS011;64371;47.566;19.086;2023-11-21T17:33:12;23.30;;;12.13;;
75758;SDS011;64371;47.566;19.086;2023-11-21T17:36:15;27.15;;;13.63;;
75758;SDS011;64371;47.566;19.086;2023-11-21T17:39:17;32.85;;;16.20;;
75758;SDS011;64371;47.566;19.086;2023-11-21T17:42:20;33.87;;;17.13;;
75758;SDS011;64371;47.566;19.086;2023-11-21T17:45:22;30.40;;;15.17;;
75758;SDS011;64371;47.566;19.086;2023-11-21T17:48:24;32.45;;;15.48;;
75758;SDS011;64371;47.566;19.086;2023-11-21T17:51:50;31.23;;;16.02;;
75758;SDS011;64371;47.566;19.086;2023-11-21T17:54:52;30.25;;;16.52;;
75758;SDS011;64371;47.566;19.086;2023-11-21T17:57:54;36.10;;;16.83;;
75758;SDS011;64371;47.566;19.086;2023-11-21T18:00:57;36.13;;;17.50;;
75758;SDS011;64371;47.566;19.086;2023-11-21T18:03:59;32.38;;;16.77;;
75758;SDS011;64371;47.566;19.086;2023-11-21T18:07:02;34.80;;;17.63;;
75758;SDS011;64371;47.566;19.086;2023-11-21T18:10:06;38.40;;;17.98;;
75758;SDS011;64371;47.566;19.086;2023-11-21T18:13:09;40.13;;;18.17;;